Hlavní strana
METAR-TAF:

METAR-TAF

Letiště :

Barquisimeto, Venezuela

zeměpisná šířka: 10-04N, zeměpisná délka: 069-19W, výška: 613 m

Aktuální stav počasí

Zpráva byla vytvořena před 13 hodinami a 36 minutami, v 21:00 UTC
Východní vítr 5 kt
Teplota 29°C
Vlhkost vzduchu 55%
Tlak 1010 hPa
Viditelnost 10 km a více
Oblačno až skoro zataženo ve výšce 1600 ft

METAR: SVBM 232100Z 09005KT 9999 BKN016 29/19 Q1010

Čas: 06:36 (10:36 UTC)

Předpověď počasí

Zpráva byla vytvořena před 13 hodinami a 22 minutami, v 21:14 UTC
Předpověď platná od 24 v 00 UTC do 25 v 00 UTC
Východoseverovýchodní vítr 3 kt
Viditelnost 10 km a více
Skoro jasno ve výšce 1300 ft
Polojasno ve výšce 6000 ft
Změna
od 24 v 08 UTC do 24 v 12 UTC
Viditelnost: 7000 m
Oblačno až skoro zataženo ve výšce 1300 ft

TAF: SVBM 232114Z 2400/2500 07003KT 9999 FEW013 SCT060 TX32/2418Z TN20/2508Z BECMG 2408/2412 07010 7000 BRDZ BKN013

Stav a předpovědi počasí z více než 4 000 letišť (zprávy METAR a TAF).

Červené a žluté tečky na mapě představují dostupné meteorologické stanice.

Když kurzor umístíte na tečku, zobrazí se název stanice.

Pak kliknutím zobrazíte stav a předpověď počasí.

Chcete-li změnit mapu, kliknutím na zelené tlačítko se znaménkem +mapu přiblížíte, kliknutím na zelené tlačítko se znaménkem – mapu oddálíte a kliknutím na zelené šipky přejdete na sousední mapy.


METAR-TAF: